X  CloseMetar Aviation Weather Data     EBBR Brussels

Temperature

16°C Temperature

12°C Dewpoint

77% Humidity



Wind

19 KM/H

12 MPH

 5 M/S

10 KTS



220°
South West
Current Conditions

Partly Cloudy Partly Cloudy
Pressure 1018.92 (hPa) - 30.09 (in)
Visibility 6.2 (mi) - 10 (km)
Airport
Airport-code EBBR

Location Brussels 14 (km)

Metar:
EBBR 160620Z 22010KT 9999 FEW024 16/12 Q1019 NOSIG

Time: 2019-06-16 08:20